createdAt,value
2023-03-16T00:00:43.489Z,37.52
2023-03-16T00:01:43.473Z,38.65
2023-03-16T00:02:43.464Z,36.68
2023-03-16T00:03:43.400Z,33.50
2023-03-16T00:04:43.372Z,34.68
2023-03-16T00:05:43.364Z,32.25
2023-03-16T00:06:43.336Z,39.48
2023-03-16T00:07:43.326Z,40.49
2023-03-16T00:08:43.285Z,33.69
2023-03-16T00:09:43.250Z,33.74
2023-03-16T00:10:43.240Z,32.56
2023-03-16T00:11:43.208Z,33.95
2023-03-16T00:12:43.179Z,38.20
2023-03-16T00:13:43.156Z,36.10
2023-03-16T00:14:43.143Z,34.48
2023-03-16T00:15:43.106Z,32.60
2023-03-16T00:16:43.094Z,34.68
2023-03-16T00:17:43.062Z,39.06
2023-03-16T00:18:43.049Z,41.54
2023-03-16T00:19:43.023Z,37.98
2023-03-16T00:20:43.000Z,34.84
2023-03-16T00:21:42.965Z,36.20
2023-03-16T00:22:42.979Z,37.25
2023-03-16T00:23:42.923Z,40.04
2023-03-16T00:24:42.918Z,41.04
2023-03-16T00:25:42.886Z,36.00
2023-03-16T00:26:42.857Z,36.11
2023-03-16T00:27:42.839Z,37.53
2023-03-16T00:28:42.849Z,40.34
2023-03-16T00:29:42.787Z,40.72
2023-03-16T00:30:42.796Z,39.45
2023-03-16T00:31:42.796Z,37.47
2023-03-16T00:32:42.761Z,37.02
2023-03-16T00:33:42.697Z,37.26
2023-03-16T00:34:42.678Z,40.02
2023-03-16T00:35:42.673Z,42.10
2023-03-16T00:36:42.626Z,41.48
2023-03-16T00:37:42.655Z,37.47
2023-03-16T00:38:42.595Z,39.40
2023-03-16T00:39:42.566Z,39.45
2023-03-16T00:40:42.533Z,40.08
2023-03-16T00:41:42.499Z,43.51
2023-03-16T00:42:42.484Z,40.06
2023-03-16T00:43:42.465Z,38.67
2023-03-16T00:44:42.440Z,38.08
2023-03-16T00:45:42.565Z,42.76
2023-03-16T00:46:42.397Z,42.74
2023-03-16T00:47:42.384Z,42.18
2023-03-16T00:48:42.378Z,38.61
2023-03-16T00:49:42.332Z,36.73
2023-03-16T00:50:42.310Z,41.55
2023-03-16T00:51:42.287Z,39.65
2023-03-16T00:52:42.260Z,43.27
2023-03-16T00:53:42.242Z,38.75
2023-03-16T00:54:42.217Z,36.30
2023-03-16T00:55:42.200Z,37.86
2023-03-16T00:56:42.184Z,38.89
2023-03-16T00:57:42.158Z,42.32
2023-03-16T00:58:42.138Z,43.64
2023-03-16T00:59:42.137Z,41.22
2023-03-16T01:00:42.098Z,39.21
2023-03-16T01:01:42.203Z,37.21
2023-03-16T01:02:42.040Z,40.20
2023-03-16T01:03:42.030Z,41.63
2023-03-16T01:04:42.001Z,41.63
2023-03-16T01:05:41.988Z,34.90
2023-03-16T01:06:42.003Z,38.02
2023-03-16T01:07:41.964Z,39.01
2023-03-16T01:08:42.008Z,38.94
2023-03-16T01:09:41.898Z,40.83
2023-03-16T01:10:41.877Z,40.42
2023-03-16T01:11:41.868Z,36.07
2023-03-16T01:12:41.841Z,36.17
2023-03-16T01:13:41.816Z,36.62
2023-03-16T01:14:41.807Z,38.80
2023-03-16T01:15:41.770Z,41.37
2023-03-16T01:16:41.856Z,36.42
2023-03-16T01:17:41.809Z,33.20
2023-03-16T01:18:41.712Z,35.39
2023-03-16T01:19:41.687Z,37.99
2023-03-16T01:20:41.657Z,41.11
2023-03-16T01:21:41.641Z,39.15
2023-03-16T01:22:41.610Z,36.00
2023-03-16T01:23:41.590Z,35.31
2023-03-16T01:24:41.564Z,34.98
2023-03-16T01:25:41.541Z,37.19
2023-03-16T01:26:41.540Z,37.39
2023-03-16T01:27:41.483Z,37.95
2023-03-16T01:28:41.478Z,34.05
2023-03-16T01:29:41.437Z,35.42
2023-03-16T01:30:41.451Z,34.29
2023-03-16T01:31:41.398Z,37.91
2023-03-16T01:32:41.378Z,41.75
2023-03-16T01:33:41.347Z,37.91
2023-03-16T01:34:41.316Z,35.78
2023-03-16T01:35:41.360Z,33.11
2023-03-16T01:36:41.278Z,36.46
2023-03-16T01:37:41.252Z,40.05
2023-03-16T01:38:41.222Z,42.22
2023-03-16T01:39:41.216Z,34.16
2023-03-16T01:40:41.196Z,36.31
2023-03-16T01:41:41.188Z,36.77
2023-03-16T01:42:41.130Z,37.64
2023-03-16T01:43:41.113Z,38.98
2023-03-16T01:44:41.085Z,40.04
2023-03-16T01:45:41.058Z,34.84
2023-03-16T01:46:41.083Z,37.76
2023-03-16T01:47:41.019Z,39.20
2023-03-16T01:48:40.992Z,41.28
2023-03-16T01:49:40.966Z,42.54
2023-03-16T01:50:40.949Z,39.20
2023-03-16T01:51:40.921Z,38.88
2023-03-16T01:52:40.904Z,38.12
2023-03-16T01:53:40.867Z,40.60
2023-03-16T01:54:40.889Z,41.25
2023-03-16T01:55:40.825Z,43.03
2023-03-16T01:56:40.929Z,39.86
2023-03-16T01:57:40.771Z,40.08
2023-03-16T01:58:55.478Z,39.55
2023-03-16T01:59:40.740Z,39.79
2023-03-16T02:00:40.701Z,40.71
2023-03-16T02:01:40.742Z,41.85
2023-03-16T02:02:40.638Z,41.91
2023-03-16T02:03:40.609Z,42.82
2023-03-16T02:04:40.631Z,42.75
2023-03-16T02:05:40.548Z,45.42
2023-03-16T02:06:40.533Z,47.94
2023-03-16T02:07:40.518Z,42.13
2023-03-16T02:08:40.481Z,41.21
2023-03-16T02:09:40.437Z,41.28
2023-03-16T02:10:40.415Z,41.30
2023-03-16T02:11:40.380Z,44.93
2023-03-16T02:12:40.352Z,46.24
2023-03-16T02:13:40.372Z,42.57
2023-03-16T02:14:40.301Z,40.09
2023-03-16T02:15:40.317Z,38.00
2023-03-16T02:16:40.243Z,39.36
2023-03-16T02:17:40.222Z,43.74
2023-03-16T02:18:40.187Z,43.57
2023-03-16T02:19:40.157Z,36.37
2023-03-16T02:20:40.127Z,37.56
2023-03-16T02:21:40.113Z,38.21
2023-03-16T02:22:40.084Z,40.01
2023-03-16T02:23:40.053Z,43.94
2023-03-16T02:24:40.023Z,41.78
2023-03-16T02:25:39.992Z,38.43
2023-03-16T02:26:39.956Z,35.19
2023-03-16T02:27:39.931Z,37.90
2023-03-16T02:28:39.895Z,39.13
2023-03-16T02:29:39.876Z,40.09
2023-03-16T02:30:39.929Z,39.18
2023-03-16T02:31:39.799Z,37.46
2023-03-16T02:32:39.852Z,35.37
2023-03-16T02:33:39.749Z,34.70
2023-03-16T02:34:39.740Z,40.10
2023-03-16T02:35:39.724Z,40.54
2023-03-16T02:36:39.674Z,38.75
2023-03-16T02:37:39.680Z,35.32
2023-03-16T02:38:39.632Z,36.24
2023-03-16T02:39:39.622Z,40.56
2023-03-16T02:40:39.599Z,40.69
2023-03-16T02:41:39.577Z,42.68
2023-03-16T02:42:39.557Z,38.06
2023-03-16T02:43:39.535Z,37.65
2023-03-16T02:44:39.514Z,38.71
2023-03-16T02:45:39.485Z,40.91
2023-03-16T02:46:39.503Z,42.45
2023-03-16T02:47:39.441Z,41.06
2023-03-16T02:48:39.418Z,38.18
2023-03-16T02:49:39.386Z,36.91
2023-03-16T02:50:39.368Z,39.02
2023-03-16T02:51:39.341Z,39.99
2023-03-16T02:52:39.328Z,42.57
2023-03-16T03:05:39.010Z,34.31
2023-03-16T03:47:38.030Z,36.17
2023-03-16T06:35:34.187Z,67.71
2023-03-16T06:36:34.120Z,70.11
2023-03-16T06:37:34.086Z,73.74
2023-03-16T06:38:34.101Z,76.89
2023-03-16T06:39:34.050Z,81.44
2023-03-16T06:40:34.069Z,85.78
2023-03-16T06:41:34.028Z,90.36
2023-03-16T06:42:33.998Z,93.35
2023-03-16T06:43:34.124Z,98.01
2023-03-16T06:44:33.973Z,101.02
2023-03-16T06:45:33.993Z,103.18
2023-03-16T06:46:33.937Z,113.45
2023-03-16T06:47:33.915Z,113.90
2023-03-16T06:48:33.882Z,121.49
2023-03-16T06:49:33.882Z,124.72
2023-03-16T06:50:33.836Z,125.06
2023-03-16T06:51:33.835Z,126.28
2023-03-16T06:52:33.805Z,129.57
2023-03-16T06:53:33.781Z,138.23
2023-03-16T06:54:33.796Z,125.59
2023-03-16T06:55:33.769Z,128.63
2023-03-16T06:56:33.737Z,134.72
2023-03-16T06:57:33.694Z,144.89
2023-03-16T06:58:33.753Z,161.22
2023-03-16T06:59:33.636Z,166.65
2023-03-16T07:00:33.622Z,171.26
2023-03-16T07:01:33.718Z,174.78
2023-03-16T07:02:33.575Z,174.98
2023-03-16T07:03:33.558Z,176.19
2023-03-16T07:04:33.578Z,177.91
2023-03-16T07:05:33.505Z,182.00
2023-03-16T07:06:33.491Z,189.07
2023-03-16T07:07:33.445Z,193.33
2023-03-16T07:08:33.425Z,195.94
2023-03-16T07:09:34.759Z,198.11
2023-03-16T07:10:33.464Z,201.62
2023-03-16T07:11:33.410Z,202.95
2023-03-16T07:12:33.344Z,207.05
2023-03-16T07:13:33.298Z,211.23
2023-03-16T07:14:33.278Z,209.84
2023-03-16T07:15:33.257Z,215.33
2023-03-16T07:16:33.364Z,217.22
2023-03-16T07:17:33.215Z,218.54
2023-03-16T07:18:33.179Z,218.96
2023-03-16T07:19:33.168Z,219.73
2023-03-16T07:20:33.206Z,222.52
2023-03-16T07:21:33.098Z,225.71
2023-03-16T07:22:33.098Z,230.12
2023-03-16T07:23:33.041Z,235.45
2023-03-16T07:24:33.006Z,238.75
2023-03-16T07:25:33.010Z,239.05
2023-03-16T07:26:33.067Z,243.21
2023-03-16T07:27:32.978Z,248.69
2023-03-16T07:28:32.910Z,247.64
2023-03-16T07:29:32.905Z,248.05
2023-03-16T07:30:32.865Z,249.66
2023-03-16T07:31:33.517Z,252.30
2023-03-16T07:32:32.931Z,257.12
2023-03-16T07:33:32.769Z,265.89
2023-03-16T07:34:32.789Z,250.65
2023-03-16T07:35:32.713Z,249.69
2023-03-16T07:36:32.673Z,250.00
2023-03-16T07:37:32.651Z,249.79
2023-03-16T07:38:32.652Z,249.61
2023-03-16T07:39:32.586Z,250.00
2023-03-16T07:40:32.587Z,249.77
2023-03-16T07:41:32.841Z,249.60
2023-03-16T07:42:32.598Z,250.00
2023-03-16T07:43:32.485Z,249.38
2023-03-16T07:44:32.581Z,249.79
2023-03-16T07:45:32.461Z,249.20
2023-03-16T07:46:32.414Z,249.53
2023-03-16T07:47:32.367Z,248.93
2023-03-16T07:48:32.276Z,250.00
2023-03-16T07:49:32.237Z,248.38
2023-03-16T07:50:32.232Z,247.65
2023-03-16T07:51:32.200Z,248.54
2023-03-16T07:52:32.173Z,249.05
2023-03-16T07:53:32.139Z,247.78
2023-03-16T07:54:32.104Z,247.93
2023-03-16T07:55:32.037Z,248.11
2023-03-16T07:56:47.464Z,249.51
2023-03-16T07:57:32.979Z,248.12
2023-03-16T07:58:31.916Z,248.61
2023-03-16T07:59:32.028Z,249.02
2023-03-16T08:00:32.128Z,254.37
2023-03-16T08:01:31.862Z,266.97
2023-03-16T08:02:31.895Z,258.05
2023-03-16T08:03:31.850Z,258.19
2023-03-16T08:04:31.730Z,258.05
2023-03-16T08:05:31.699Z,255.25
2023-03-16T08:22:32.060Z,248.46
2023-03-16T09:58:27.714Z,117.18
2023-03-16T09:59:27.748Z,117.21
2023-03-16T10:00:27.958Z,117.23
2023-03-16T10:01:27.672Z,113.98
2023-03-16T10:02:27.584Z,113.52
2023-03-16T10:03:27.557Z,110.14
2023-03-16T10:04:27.524Z,111.59
2023-03-16T10:05:27.489Z,108.26
2023-03-16T10:06:27.460Z,68.41
2023-03-16T10:07:27.416Z,0.00
2023-03-16T10:08:27.388Z,7.50
2023-03-16T10:09:27.345Z,0.00
2023-03-16T10:10:27.628Z,15.45
2023-03-16T10:11:27.279Z,0.00
2023-03-16T10:12:27.265Z,0.00
2023-03-16T10:13:27.218Z,0.00
2023-03-16T10:14:27.193Z,12.67
2023-03-16T10:15:27.254Z,22.83
2023-03-16T10:16:27.200Z,30.43
2023-03-16T10:17:27.092Z,0.00
2023-03-16T10:18:27.058Z,7.39
2023-03-16T10:19:27.091Z,12.98
2023-03-16T10:20:27.236Z,25.40
2023-03-16T10:21:26.978Z,30.66
2023-03-16T10:22:26.992Z,27.49
2023-03-16T10:23:26.934Z,18.37
2023-03-16T10:24:26.900Z,41.08
2023-03-16T10:25:26.867Z,26.02
2023-03-16T10:26:26.840Z,27.50
2023-03-16T10:27:26.828Z,14.93
2023-03-16T10:28:26.812Z,24.44
2023-03-16T10:29:26.778Z,20.05
2023-03-16T10:30:27.215Z,14.62
2023-03-16T10:31:26.738Z,23.18
2023-03-16T10:32:27.652Z,33.20
2023-03-16T10:33:26.731Z,39.38
2023-03-16T10:34:27.725Z,31.37
2023-03-16T10:35:26.865Z,32.71
2023-03-16T10:36:26.637Z,42.57
2023-03-16T10:37:26.545Z,24.08
2023-03-16T10:38:26.526Z,20.78
2023-03-16T10:39:26.806Z,19.49
2023-03-16T10:40:26.563Z,28.01
2023-03-16T10:41:26.447Z,55.43
2023-03-16T10:42:26.418Z,71.45
2023-03-16T10:43:26.385Z,92.54
2023-03-16T10:44:26.383Z,109.27
2023-03-16T10:45:26.451Z,121.72
2023-03-16T10:46:26.552Z,131.38
2023-03-16T10:47:26.341Z,139.18
2023-03-16T10:48:26.248Z,139.38
2023-03-16T10:49:26.292Z,139.52
2023-03-16T10:50:26.264Z,98.45
2023-03-16T10:51:26.360Z,81.66
2023-03-16T10:52:26.130Z,68.57
2023-03-16T10:53:26.097Z,70.98
2023-03-16T10:54:26.121Z,55.72
2023-03-16T10:55:26.088Z,44.09
2023-03-16T10:56:26.034Z,33.16
2023-03-16T10:57:26.616Z,25.00
2023-03-16T10:58:25.989Z,39.83
2023-03-16T10:59:25.984Z,23.67
2023-03-16T11:00:25.949Z,25.00
2023-03-16T11:01:25.935Z,25.91
2023-03-16T11:02:25.913Z,26.44
2023-03-16T11:03:25.884Z,27.83
2023-03-16T11:04:25.893Z,28.23
2023-03-16T11:05:25.953Z,28.87
2023-03-16T11:06:25.820Z,27.28
2023-03-16T11:07:25.855Z,22.93
2023-03-16T11:08:25.755Z,23.50
2023-03-16T11:09:25.754Z,29.51
2023-03-16T11:10:25.735Z,25.13
2023-03-16T11:11:25.756Z,26.95
2023-03-16T11:12:25.708Z,24.29
2023-03-16T11:13:25.873Z,33.17
2023-03-16T11:14:25.806Z,42.12
2023-03-16T11:15:26.624Z,41.45
2023-03-16T11:16:25.664Z,36.87
2023-03-16T11:17:25.611Z,41.49
2023-03-16T11:18:25.595Z,30.04
2023-03-16T11:19:25.564Z,27.97
2023-03-16T11:20:25.570Z,30.07
2023-03-16T11:21:25.539Z,28.12
2023-03-16T11:22:25.538Z,22.62
2023-03-16T11:23:25.500Z,23.80
2023-03-16T11:24:25.528Z,24.67
2023-03-16T11:25:25.478Z,29.68
2023-03-16T11:26:25.442Z,28.04
2023-03-16T11:27:25.412Z,26.80
2023-03-16T11:28:25.620Z,22.42
2023-03-16T11:29:25.384Z,24.09
2023-03-16T11:30:25.382Z,28.95
2023-03-16T11:31:25.413Z,30.97
2023-03-16T11:32:25.447Z,35.69
2023-03-16T11:33:25.329Z,34.21
2023-03-16T11:34:25.323Z,37.39
2023-03-16T11:35:25.291Z,39.78
2023-03-16T11:36:25.358Z,33.44
2023-03-16T11:37:25.239Z,63.21
2023-03-16T11:38:25.226Z,90.72
2023-03-16T11:39:25.193Z,108.80
2023-03-16T11:40:25.169Z,123.89
2023-03-16T11:41:25.183Z,95.63
2023-03-16T11:42:25.127Z,110.51
2023-03-16T11:43:25.099Z,133.75
2023-03-16T11:44:25.129Z,144.37
2023-03-16T11:45:25.059Z,153.60
2023-03-16T11:46:25.118Z,156.56
2023-03-16T11:47:25.024Z,163.29
2023-03-16T11:50:24.911Z,176.39
2023-03-16T11:51:24.936Z,179.47
2023-03-16T11:53:24.852Z,179.27
2023-03-16T11:54:25.014Z,182.76
2023-03-16T11:55:24.792Z,185.41
2023-03-16T11:56:24.734Z,186.89
2023-03-16T11:57:24.689Z,188.90
2023-03-16T12:53:23.020Z,184.58
2023-03-16T12:54:22.985Z,185.43
2023-03-16T12:55:22.958Z,185.41
2023-03-16T12:56:22.930Z,186.45
2023-03-16T12:57:22.893Z,187.57
2023-03-16T12:58:22.996Z,188.45
2023-03-16T12:59:22.829Z,189.72
2023-03-16T13:00:22.764Z,189.25
2023-03-16T13:01:22.804Z,188.81
2023-03-16T13:02:22.699Z,190.09
2023-03-16T13:03:22.675Z,190.06
2023-03-16T13:04:22.706Z,190.51
2023-03-16T13:05:22.577Z,190.29
2023-03-16T13:06:22.542Z,190.30
2023-03-16T13:07:22.519Z,190.47
2023-03-16T13:08:22.477Z,190.57
2023-03-16T13:09:22.438Z,191.25
2023-03-16T13:10:22.399Z,192.44
2023-03-16T13:11:22.359Z,192.72
2023-03-16T13:12:22.329Z,192.50
2023-03-16T13:13:22.296Z,193.10
2023-03-16T13:14:22.260Z,193.38
2023-03-16T13:15:22.230Z,193.87
2023-03-16T13:16:22.274Z,194.02
2023-03-16T13:17:22.184Z,194.63
2023-03-16T13:18:22.129Z,194.43
2023-03-16T13:19:22.103Z,195.14
2023-03-16T13:20:30.336Z,195.30
2023-03-16T13:22:22.016Z,195.31
2023-03-16T13:23:22.030Z,195.49
2023-03-16T13:24:21.918Z,195.04
2023-03-16T13:25:21.884Z,195.33
2023-03-16T13:26:21.845Z,194.24
2023-03-16T13:27:21.809Z,195.71
2023-03-16T13:28:21.774Z,195.69
2023-03-16T13:29:21.740Z,195.32
2023-03-16T13:46:57.211Z,25.00
2023-03-16T14:26:55.872Z,46.23
2023-03-16T14:27:55.858Z,38.23
2023-03-16T14:28:55.828Z,34.42
2023-03-16T14:29:55.763Z,34.40
2023-03-16T14:30:55.772Z,37.83
2023-03-16T14:31:55.709Z,36.08
2023-03-16T14:32:55.725Z,39.96
2023-03-16T14:33:55.637Z,37.57
2023-03-16T14:34:55.599Z,31.31
2023-03-16T14:35:55.593Z,44.09
2023-03-16T14:36:55.523Z,43.83
2023-03-16T14:37:55.503Z,41.47
2023-03-16T14:38:55.472Z,43.01
2023-03-16T14:39:55.402Z,37.07
2023-03-16T14:40:55.372Z,42.05
2023-03-16T14:41:55.333Z,37.70
2023-03-16T14:42:55.307Z,37.43
2023-03-16T14:43:55.304Z,40.19
2023-03-16T14:44:55.221Z,43.53
2023-03-16T14:45:55.287Z,41.85
2023-03-16T14:46:55.165Z,41.22
2023-03-16T14:47:55.129Z,44.12
2023-03-16T14:48:55.151Z,48.12
2023-03-16T14:49:55.074Z,44.57
2023-03-16T14:50:55.018Z,47.71
2023-03-16T14:51:54.984Z,47.97
2023-03-16T14:52:54.982Z,48.35
2023-03-16T14:53:54.922Z,47.90
2023-03-16T14:54:54.887Z,47.50
2023-03-16T14:55:54.825Z,45.82
2023-03-16T14:56:54.794Z,46.32
2023-03-16T14:57:54.743Z,48.48
2023-03-16T14:58:54.718Z,48.60
2023-03-16T14:59:54.696Z,48.56
2023-03-16T15:00:54.688Z,42.24
2023-03-16T18:35:47.456Z,28.30
2023-03-16T18:36:47.405Z,27.71
2023-03-16T18:37:47.378Z,25.00
2023-03-16T18:38:47.364Z,27.42
2023-03-16T18:39:47.313Z,28.09
2023-03-16T18:40:47.296Z,26.28
2023-03-16T18:41:47.251Z,28.63
2023-03-16T18:42:47.236Z,27.38
2023-03-16T18:43:47.203Z,26.55
2023-03-16T18:44:47.181Z,28.05
2023-03-16T18:45:47.139Z,29.90
2023-03-16T18:46:47.169Z,29.29
2023-03-16T18:47:47.092Z,29.28
2023-03-16T18:48:47.062Z,28.56
2023-03-16T18:49:47.039Z,28.69
2023-03-16T18:50:47.040Z,29.42
2023-03-16T18:51:46.994Z,27.32
2023-03-16T18:52:46.962Z,27.94
2023-03-16T18:53:46.949Z,29.48
2023-03-16T18:54:46.914Z,25.82
2023-03-16T18:55:46.878Z,27.76
2023-03-16T18:56:46.850Z,26.27
2023-03-16T18:57:46.829Z,27.05
2023-03-16T18:58:46.786Z,25.36
2023-03-16T18:59:46.767Z,25.67
2023-03-16T19:00:46.776Z,27.60
2023-03-16T19:01:46.758Z,29.94
2023-03-16T19:02:46.684Z,28.10
2023-03-16T19:03:46.654Z,29.58
2023-03-16T19:04:46.620Z,25.08
2023-03-16T19:05:46.614Z,28.19
2023-03-16T19:06:46.573Z,28.82
2023-03-16T19:07:46.544Z,28.04
2023-03-16T19:08:46.516Z,29.68
2023-03-16T19:09:46.503Z,29.46
2023-03-16T19:10:46.471Z,29.81
2023-03-16T19:11:46.442Z,29.75
2023-03-16T19:12:46.422Z,29.12
2023-03-16T19:13:46.406Z,29.02
2023-03-16T19:14:46.372Z,29.73
2023-03-16T19:15:46.349Z,27.77
2023-03-16T19:16:46.326Z,29.92
2023-03-16T19:17:46.441Z,29.31
2023-03-16T19:18:46.290Z,28.68
2023-03-16T19:19:46.270Z,29.69
2023-03-16T19:20:47.868Z,27.17
2023-03-16T19:21:46.217Z,28.93
2023-03-16T19:22:46.204Z,28.17
2023-03-16T19:23:46.166Z,29.01
2023-03-16T19:24:46.151Z,28.64
2023-03-16T19:25:46.155Z,28.36
2023-03-16T19:26:46.091Z,28.28
2023-03-16T19:27:46.070Z,29.00
2023-03-16T19:28:46.036Z,29.08
2023-03-16T19:29:46.007Z,31.59
2023-03-16T19:30:45.994Z,27.74
2023-03-16T19:31:46.111Z,30.03
2023-03-16T19:32:45.936Z,30.78
2023-03-16T19:33:45.908Z,26.83
2023-03-16T19:34:45.864Z,28.54
2023-03-16T19:35:51.793Z,29.77
2023-03-16T19:36:46.795Z,30.04
2023-03-16T19:37:45.775Z,30.17
2023-03-16T19:38:45.734Z,30.41
2023-03-16T19:39:45.708Z,29.96
2023-03-16T19:40:45.676Z,30.48
2023-03-16T19:41:45.650Z,28.86
2023-03-16T19:42:45.611Z,29.08
2023-03-16T19:43:45.605Z,29.22
2023-03-16T19:44:45.557Z,28.54
2023-03-16T19:45:45.565Z,27.28
2023-03-16T19:46:45.516Z,29.04
2023-03-16T19:47:45.528Z,27.06
2023-03-16T19:48:45.469Z,31.24
2023-03-16T19:49:45.433Z,29.41
2023-03-16T19:50:45.411Z,26.64
2023-03-16T19:51:45.380Z,29.43
2023-03-16T19:52:45.350Z,27.47
2023-03-16T19:53:45.339Z,26.76
2023-03-16T19:54:45.295Z,28.18
2023-03-16T19:55:45.270Z,26.56
2023-03-16T19:56:45.251Z,27.22
2023-03-16T19:57:45.218Z,30.75
2023-03-16T19:58:45.200Z,30.41
2023-03-16T19:59:45.163Z,28.17
2023-03-16T20:00:45.130Z,26.30
2023-03-16T20:01:45.134Z,27.20
2023-03-16T20:02:45.083Z,27.31
2023-03-16T20:03:45.104Z,26.67
2023-03-16T20:04:45.069Z,31.28
2023-03-16T20:05:45.020Z,28.49
2023-03-16T20:06:44.993Z,27.12
2023-03-16T20:07:44.968Z,28.34
2023-03-16T20:08:44.958Z,28.20
2023-03-16T20:09:44.991Z,29.42
2023-03-16T20:10:44.907Z,28.64
2023-03-16T20:11:44.870Z,29.33
2023-03-16T20:12:44.847Z,30.67
2023-03-16T20:13:44.810Z,27.51
2023-03-16T20:14:44.787Z,27.43
2023-03-16T20:15:44.778Z,28.30
2023-03-16T20:16:44.756Z,29.00
2023-03-16T20:17:44.701Z,28.39
2023-03-16T20:18:44.685Z,28.96
2023-03-16T20:19:44.661Z,32.07
